sensor_id;sensor_type;location;lat;lon;timestamp;temperature;humidity
3925;DHT22;1977;52.274;10.518;2023-11-22T00:00:27;6.30;99.90
3925;DHT22;1977;52.274;10.518;2023-11-22T00:02:54;6.40;99.90
3925;DHT22;1977;52.274;10.518;2023-11-22T00:05:21;6.20;99.90
3925;DHT22;1977;52.274;10.518;2023-11-22T00:07:48;6.30;99.90
3925;DHT22;1977;52.274;10.518;2023-11-22T00:10:15;6.30;99.90
3925;DHT22;1977;52.274;10.518;2023-11-22T00:12:43;6.40;99.90
3925;DHT22;1977;52.274;10.518;2023-11-22T00:15:10;6.30;99.90
3925;DHT22;1977;52.274;10.518;2023-11-22T00:17:37;6.20;99.90
3925;DHT22;1977;52.274;10.518;2023-11-22T00:20:05;6.20;99.90
3925;DHT22;1977;52.274;10.518;2023-11-22T00:22:33;6.20;99.90
3925;DHT22;1977;52.274;10.518;2023-11-22T00:25:00;6.40;99.90
3925;DHT22;1977;52.274;10.518;2023-11-22T00:27:27;6.20;99.90
3925;DHT22;1977;52.274;10.518;2023-11-22T00:29:56;6.20;99.90
3925;DHT22;1977;52.274;10.518;2023-11-22T00:32:24;6.20;99.90
3925;DHT22;1977;52.274;10.518;2023-11-22T00:34:51;6.50;99.90
3925;DHT22;1977;52.274;10.518;2023-11-22T00:37:18;6.20;99.90
3925;DHT22;1977;52.274;10.518;2023-11-22T00:39:45;6.20;99.90
3925;DHT22;1977;52.274;10.518;2023-11-22T00:42:12;6.20;99.90
3925;DHT22;1977;52.274;10.518;2023-11-22T00:44:38;6.20;99.90
3925;DHT22;1977;52.274;10.518;2023-11-22T00:47:07;6.20;99.90
3925;DHT22;1977;52.274;10.518;2023-11-22T00:49:33;6.60;99.90
3925;DHT22;1977;52.274;10.518;2023-11-22T00:52:00;6.40;99.90
3925;DHT22;1977;52.274;10.518;2023-11-22T00:54:28;6.30;99.90
3925;DHT22;1977;52.274;10.518;2023-11-22T00:56:55;6.60;99.90
3925;DHT22;1977;52.274;10.518;2023-11-22T00:59:21;6.30;99.90
3925;DHT22;1977;52.274;10.518;2023-11-22T01:01:48;6.10;99.90
3925;DHT22;1977;52.274;10.518;2023-11-22T01:04:16;6.20;99.90
3925;DHT22;1977;52.274;10.518;2023-11-22T01:06:45;6.20;99.90
3925;DHT22;1977;52.274;10.518;2023-11-22T01:09:15;6.30;99.90
3925;DHT22;1977;52.274;10.518;2023-11-22T01:11:44;6.50;99.90
3925;DHT22;1977;52.274;10.518;2023-11-22T01:14:10;6.30;99.90
3925;DHT22;1977;52.274;10.518;2023-11-22T01:16:37;6.20;99.90
3925;DHT22;1977;52.274;10.518;2023-11-22T01:19:04;6.30;99.90
3925;DHT22;1977;52.274;10.518;2023-11-22T01:21:32;6.50;99.90
3925;DHT22;1977;52.274;10.518;2023-11-22T01:23:59;6.20;99.90
3925;DHT22;1977;52.274;10.518;2023-11-22T01:26:27;6.30;99.90
3925;DHT22;1977;52.274;10.518;2023-11-22T01:28:53;6.20;99.90
3925;DHT22;1977;52.274;10.518;2023-11-22T01:31:20;6.30;99.90
3925;DHT22;1977;52.274;10.518;2023-11-22T01:33:48;6.20;99.90
3925;DHT22;1977;52.274;10.518;2023-11-22T01:36:15;6.20;99.90
3925;DHT22;1977;52.274;10.518;2023-11-22T01:38:43;6.40;99.90
3925;DHT22;1977;52.274;10.518;2023-11-22T01:41:11;6.10;99.90
3925;DHT22;1977;52.274;10.518;2023-11-22T01:43:39;6.40;99.90
3925;DHT22;1977;52.274;10.518;2023-11-22T01:46:07;6.00;99.90
3925;DHT22;1977;52.274;10.518;2023-11-22T01:48:34;5.90;99.90
3925;DHT22;1977;52.274;10.518;2023-11-22T01:51:02;5.80;99.90
3925;DHT22;1977;52.274;10.518;2023-11-22T01:53:29;6.10;99.90
3925;DHT22;1977;52.274;10.518;2023-11-22T01:55:58;5.80;99.90
3925;DHT22;1977;52.274;10.518;2023-11-22T01:58:25;5.70;99.90
3925;DHT22;1977;52.274;10.518;2023-11-22T02:00:52;5.70;99.90
3925;DHT22;1977;52.274;10.518;2023-11-22T02:03:19;5.60;99.90
3925;DHT22;1977;52.274;10.518;2023-11-22T02:05:46;5.60;99.90
3925;DHT22;1977;52.274;10.518;2023-11-22T02:08:14;5.70;99.90
3925;DHT22;1977;52.274;10.518;2023-11-22T02:10:41;5.60;99.90
3925;DHT22;1977;52.274;10.518;2023-11-22T02:13:11;5.60;99.90
3925;DHT22;1977;52.274;10.518;2023-11-22T02:15:38;5.60;99.90
3925;DHT22;1977;52.274;10.518;2023-11-22T02:18:05;5.80;99.90
3925;DHT22;1977;52.274;10.518;2023-11-22T02:20:32;5.50;99.90
3925;DHT22;1977;52.274;10.518;2023-11-22T02:23:07;5.70;99.90
3925;DHT22;1977;52.274;10.518;2023-11-22T02:25:34;5.50;99.90
3925;DHT22;1977;52.274;10.518;2023-11-22T02:28:01;5.50;99.90
3925;DHT22;1977;52.274;10.518;2023-11-22T02:30:29;5.30;99.90
3925;DHT22;1977;52.274;10.518;2023-11-22T02:32:56;5.30;99.90
3925;DHT22;1977;52.274;10.518;2023-11-22T02:35:22;5.30;99.90
3925;DHT22;1977;52.274;10.518;2023-11-22T02:37:49;5.40;99.90
3925;DHT22;1977;52.274;10.518;2023-11-22T02:40:18;5.40;99.90
3925;DHT22;1977;52.274;10.518;2023-11-22T02:42:45;5.30;99.90
3925;DHT22;1977;52.274;10.518;2023-11-22T02:45:13;5.30;99.90
3925;DHT22;1977;52.274;10.518;2023-11-22T02:47:40;5.20;99.90
3925;DHT22;1977;52.274;10.518;2023-11-22T02:50:07;5.30;99.90
3925;DHT22;1977;52.274;10.518;2023-11-22T02:52:34;5.30;99.90
3925;DHT22;1977;52.274;10.518;2023-11-22T02:55:01;5.30;99.90
3925;DHT22;1977;52.274;10.518;2023-11-22T02:57:29;5.20;99.90
3925;DHT22;1977;52.274;10.518;2023-11-22T02:59:56;5.10;99.90
3925;DHT22;1977;52.274;10.518;2023-11-22T03:02:23;5.20;99.90
3925;DHT22;1977;52.274;10.518;2023-11-22T03:04:51;5.10;99.90
3925;DHT22;1977;52.274;10.518;2023-11-22T03:07:18;5.10;99.90
3925;DHT22;1977;52.274;10.518;2023-11-22T03:09:46;5.00;99.90
3925;DHT22;1977;52.274;10.518;2023-11-22T03:12:13;4.90;99.90
3925;DHT22;1977;52.274;10.518;2023-11-22T03:14:41;4.90;99.90
3925;DHT22;1977;52.274;10.518;2023-11-22T03:17:08;4.90;99.90
3925;DHT22;1977;52.274;10.518;2023-11-22T03:19:35;4.90;99.90
3925;DHT22;1977;52.274;10.518;2023-11-22T03:22:02;4.90;99.90
3925;DHT22;1977;52.274;10.518;2023-11-22T03:24:29;4.90;99.90
3925;DHT22;1977;52.274;10.518;2023-11-22T03:26:56;4.80;99.90
3925;DHT22;1977;52.274;10.518;2023-11-22T03:29:24;5.00;99.90
3925;DHT22;1977;52.274;10.518;2023-11-22T03:31:52;4.80;99.90
3925;DHT22;1977;52.274;10.518;2023-11-22T03:34:20;4.80;99.90
3925;DHT22;1977;52.274;10.518;2023-11-22T03:36:46;5.00;99.90
3925;DHT22;1977;52.274;10.518;2023-11-22T03:39:15;5.00;99.90
3925;DHT22;1977;52.274;10.518;2023-11-22T03:41:42;4.80;99.90
3925;DHT22;1977;52.274;10.518;2023-11-22T03:44:09;4.70;99.90
3925;DHT22;1977;52.274;10.518;2023-11-22T03:46:36;4.70;99.90
3925;DHT22;1977;52.274;10.518;2023-11-22T03:49:04;5.20;99.90
3925;DHT22;1977;52.274;10.518;2023-11-22T03:51:32;4.70;99.90
3925;DHT22;1977;52.274;10.518;2023-11-22T03:53:59;4.70;99.90
3925;DHT22;1977;52.274;10.518;2023-11-22T03:56:26;4.80;99.90
3925;DHT22;1977;52.274;10.518;2023-11-22T03:58:53;4.50;99.90
3925;DHT22;1977;52.274;10.518;2023-11-22T04:01:20;4.50;99.90
3925;DHT22;1977;52.274;10.518;2023-11-22T04:03:48;4.60;99.90
3925;DHT22;1977;52.274;10.518;2023-11-22T04:06:16;4.60;99.90
3925;DHT22;1977;52.274;10.518;2023-11-22T04:08:43;4.50;99.90
3925;DHT22;1977;52.274;10.518;2023-11-22T04:11:11;4.50;99.90
3925;DHT22;1977;52.274;10.518;2023-11-22T04:13:38;4.40;99.90
3925;DHT22;1977;52.274;10.518;2023-11-22T04:16:06;4.50;99.90
3925;DHT22;1977;52.274;10.518;2023-11-22T04:18:34;4.50;99.90
3925;DHT22;1977;52.274;10.518;2023-11-22T04:21:01;4.40;99.90
3925;DHT22;1977;52.274;10.518;2023-11-22T04:23:31;4.40;99.90
3925;DHT22;1977;52.274;10.518;2023-11-22T04:25:58;4.30;99.90
3925;DHT22;1977;52.274;10.518;2023-11-22T04:28:25;4.30;99.90
3925;DHT22;1977;52.274;10.518;2023-11-22T04:30:51;4.50;99.90
3925;DHT22;1977;52.274;10.518;2023-11-22T04:33:18;4.50;99.90
3925;DHT22;1977;52.274;10.518;2023-11-22T04:35:45;4.30;99.90
3925;DHT22;1977;52.274;10.518;2023-11-22T04:38:12;4.30;99.90
3925;DHT22;1977;52.274;10.518;2023-11-22T04:40:41;4.30;99.90
3925;DHT22;1977;52.274;10.518;2023-11-22T04:43:08;4.70;99.90
3925;DHT22;1977;52.274;10.518;2023-11-22T04:45:35;4.40;99.90
3925;DHT22;1977;52.274;10.518;2023-11-22T04:48:03;4.30;99.90
3925;DHT22;1977;52.274;10.518;2023-11-22T04:50:30;4.30;99.90
3925;DHT22;1977;52.274;10.518;2023-11-22T04:52:57;4.30;99.90
3925;DHT22;1977;52.274;10.518;2023-11-22T04:55:23;4.30;99.90
3925;DHT22;1977;52.274;10.518;2023-11-22T04:57:51;4.20;99.90
3925;DHT22;1977;52.274;10.518;2023-11-22T05:00:19;4.20;99.90
3925;DHT22;1977;52.274;10.518;2023-11-22T05:02:48;4.20;99.90
3925;DHT22;1977;52.274;10.518;2023-11-22T05:05:15;4.20;99.90
3925;DHT22;1977;52.274;10.518;2023-11-22T05:07:42;4.20;99.90
3925;DHT22;1977;52.274;10.518;2023-11-22T05:10:10;4.20;99.90
3925;DHT22;1977;52.274;10.518;2023-11-22T05:12:37;4.20;99.90
3925;DHT22;1977;52.274;10.518;2023-11-22T05:15:06;4.20;99.90
3925;DHT22;1977;52.274;10.518;2023-11-22T05:17:33;4.20;99.90
3925;DHT22;1977;52.274;10.518;2023-11-22T05:20:00;4.20;99.90
3925;DHT22;1977;52.274;10.518;2023-11-22T05:22:27;4.20;99.90
3925;DHT22;1977;52.274;10.518;2023-11-22T05:24:54;4.10;99.90
3925;DHT22;1977;52.274;10.518;2023-11-22T05:27:21;4.10;99.90
3925;DHT22;1977;52.274;10.518;2023-11-22T05:29:48;4.10;99.90
3925;DHT22;1977;52.274;10.518;2023-11-22T05:32:16;4.10;99.90
3925;DHT22;1977;52.274;10.518;2023-11-22T05:34:43;4.10;99.90
3925;DHT22;1977;52.274;10.518;2023-11-22T05:37:10;4.00;99.90
3925;DHT22;1977;52.274;10.518;2023-11-22T05:39:37;4.00;99.90
3925;DHT22;1977;52.274;10.518;2023-11-22T05:42:04;4.00;99.90
3925;DHT22;1977;52.274;10.518;2023-11-22T05:44:32;4.00;99.90
3925;DHT22;1977;52.274;10.518;2023-11-22T05:46:59;4.00;99.90
3925;DHT22;1977;52.274;10.518;2023-11-22T05:49:27;4.00;99.90
3925;DHT22;1977;52.274;10.518;2023-11-22T05:51:54;3.90;99.90
3925;DHT22;1977;52.274;10.518;2023-11-22T05:54:20;3.90;99.90
3925;DHT22;1977;52.274;10.518;2023-11-22T05:56:47;3.90;99.90
3925;DHT22;1977;52.274;10.518;2023-11-22T05:59:14;3.90;99.90
3925;DHT22;1977;52.274;10.518;2023-11-22T06:01:40;3.90;99.90
3925;DHT22;1977;52.274;10.518;2023-11-22T06:04:07;4.00;99.90
3925;DHT22;1977;52.274;10.518;2023-11-22T06:06:36;3.90;99.90
3925;DHT22;1977;52.274;10.518;2023-11-22T06:09:03;3.90;99.90
3925;DHT22;1977;52.274;10.518;2023-11-22T06:11:32;3.90;99.90
3925;DHT22;1977;52.274;10.518;2023-11-22T06:13:59;3.80;99.90
3925;DHT22;1977;52.274;10.518;2023-11-22T06:16:26;3.80;99.90
3925;DHT22;1977;52.274;10.518;2023-11-22T06:18:52;3.80;99.90
3925;DHT22;1977;52.274;10.518;2023-11-22T06:21:19;3.70;99.90
3925;DHT22;1977;52.274;10.518;2023-11-22T06:23:47;3.70;99.90
3925;DHT22;1977;52.274;10.518;2023-11-22T06:26:15;3.70;99.90
3925;DHT22;1977;52.274;10.518;2023-11-22T06:28:42;3.70;99.90
3925;DHT22;1977;52.274;10.518;2023-11-22T06:31:11;3.70;99.90
3925;DHT22;1977;52.274;10.518;2023-11-22T06:33:38;3.70;99.90
3925;DHT22;1977;52.274;10.518;2023-11-22T06:36:05;3.60;99.90
3925;DHT22;1977;52.274;10.518;2023-11-22T06:38:32;3.60;99.90
3925;DHT22;1977;52.274;10.518;2023-11-22T06:41:01;3.50;99.90
3925;DHT22;1977;52.274;10.518;2023-11-22T06:43:28;3.50;99.90
3925;DHT22;1977;52.274;10.518;2023-11-22T06:45:55;3.40;99.90
3925;DHT22;1977;52.274;10.518;2023-11-22T06:48:22;3.50;99.90
3925;DHT22;1977;52.274;10.518;2023-11-22T06:50:49;3.50;99.90
3925;DHT22;1977;52.274;10.518;2023-11-22T06:53:15;3.50;99.90
3925;DHT22;1977;52.274;10.518;2023-11-22T06:55:45;3.50;99.90
3925;DHT22;1977;52.274;10.518;2023-11-22T06:58:13;3.50;99.90
3925;DHT22;1977;52.274;10.518;2023-11-22T07:00:40;3.60;99.90
3925;DHT22;1977;52.274;10.518;2023-11-22T07:03:06;3.60;99.90
3925;DHT22;1977;52.274;10.518;2023-11-22T07:05:33;3.70;99.90
3925;DHT22;1977;52.274;10.518;2023-11-22T07:08:01;3.60;99.90
3925;DHT22;1977;52.274;10.518;2023-11-22T07:10:29;3.60;99.90
3925;DHT22;1977;52.274;10.518;2023-11-22T07:12:59;3.60;99.90
3925;DHT22;1977;52.274;10.518;2023-11-22T07:15:28;3.50;99.90
3925;DHT22;1977;52.274;10.518;2023-11-22T07:17:55;3.60;99.90
3925;DHT22;1977;52.274;10.518;2023-11-22T07:20:22;3.50;99.90
3925;DHT22;1977;52.274;10.518;2023-11-22T07:22:49;3.50;99.90
3925;DHT22;1977;52.274;10.518;2023-11-22T07:25:20;3.60;99.90
3925;DHT22;1977;52.274;10.518;2023-11-22T07:27:50;3.60;99.90
3925;DHT22;1977;52.274;10.518;2023-11-22T07:30:18;3.60;99.90
3925;DHT22;1977;52.274;10.518;2023-11-22T07:32:49;3.60;99.90
3925;DHT22;1977;52.274;10.518;2023-11-22T07:35:17;3.60;99.90
3925;DHT22;1977;52.274;10.518;2023-11-22T07:37:45;3.60;99.90
3925;DHT22;1977;52.274;10.518;2023-11-22T07:40:13;3.60;99.90
3925;DHT22;1977;52.274;10.518;2023-11-22T07:42:40;3.60;99.90
3925;DHT22;1977;52.274;10.518;2023-11-22T07:45:08;3.60;99.90
3925;DHT22;1977;52.274;10.518;2023-11-22T07:47:37;3.60;99.90
3925;DHT22;1977;52.274;10.518;2023-11-22T07:50:07;3.60;99.90
3925;DHT22;1977;52.274;10.518;2023-11-22T07:52:34;3.60;99.90
3925;DHT22;1977;52.274;10.518;2023-11-22T07:55:02;3.50;99.90
3925;DHT22;1977;52.274;10.518;2023-11-22T07:57:29;3.50;99.90
3925;DHT22;1977;52.274;10.518;2023-11-22T07:59:55;3.50;99.90
3925;DHT22;1977;52.274;10.518;2023-11-22T08:02:22;3.50;99.90
3925;DHT22;1977;52.274;10.518;2023-11-22T08:04:49;3.60;99.90
3925;DHT22;1977;52.274;10.518;2023-11-22T08:07:18;3.50;99.90
3925;DHT22;1977;52.274;10.518;2023-11-22T08:09:47;3.60;99.90
3925;DHT22;1977;52.274;10.518;2023-11-22T08:12:14;3.70;99.90
3925;DHT22;1977;52.274;10.518;2023-11-22T08:14:40;3.60;99.90
3925;DHT22;1977;52.274;10.518;2023-11-22T08:17:09;3.70;99.90
3925;DHT22;1977;52.274;10.518;2023-11-22T08:19:37;3.70;99.90
3925;DHT22;1977;52.274;10.518;2023-11-22T08:22:05;3.80;99.90
3925;DHT22;1977;52.274;10.518;2023-11-22T08:24:33;3.80;99.90
3925;DHT22;1977;52.274;10.518;2023-11-22T08:27:00;3.80;99.90
3925;DHT22;1977;52.274;10.518;2023-11-22T08:29:26;3.90;99.90
3925;DHT22;1977;52.274;10.518;2023-11-22T08:31:53;3.80;99.90
3925;DHT22;1977;52.274;10.518;2023-11-22T08:34:20;3.80;99.90
3925;DHT22;1977;52.274;10.518;2023-11-22T08:36:46;3.80;99.90
3925;DHT22;1977;52.274;10.518;2023-11-22T08:39:13;3.70;99.90
3925;DHT22;1977;52.274;10.518;2023-11-22T08:41:41;3.70;99.90
3925;DHT22;1977;52.274;10.518;2023-11-22T08:44:08;3.80;99.90
3925;DHT22;1977;52.274;10.518;2023-11-22T08:46:35;3.80;99.90
3925;DHT22;1977;52.274;10.518;2023-11-22T08:49:01;3.80;99.90
3925;DHT22;1977;52.274;10.518;2023-11-22T08:51:29;3.90;99.90
3925;DHT22;1977;52.274;10.518;2023-11-22T08:53:55;3.90;99.90
3925;DHT22;1977;52.274;10.518;2023-11-22T08:56:22;4.00;99.90
3925;DHT22;1977;52.274;10.518;2023-11-22T08:58:51;4.10;99.90
3925;DHT22;1977;52.274;10.518;2023-11-22T09:01:20;4.10;99.90
3925;DHT22;1977;52.274;10.518;2023-11-22T09:03:47;4.20;99.90
3925;DHT22;1977;52.274;10.518;2023-11-22T09:06:15;4.20;99.90
3925;DHT22;1977;52.274;10.518;2023-11-22T09:08:42;4.20;99.90
3925;DHT22;1977;52.274;10.518;2023-11-22T09:11:11;4.30;99.90
3925;DHT22;1977;52.274;10.518;2023-11-22T09:13:38;4.40;99.90
3925;DHT22;1977;52.274;10.518;2023-11-22T09:16:07;4.30;99.90
3925;DHT22;1977;52.274;10.518;2023-11-22T09:18:34;4.40;99.90
3925;DHT22;1977;52.274;10.518;2023-11-22T09:21:01;4.40;99.90
3925;DHT22;1977;52.274;10.518;2023-11-22T09:23:28;4.30;99.90
3925;DHT22;1977;52.274;10.518;2023-11-22T09:25:55;4.40;99.90
3925;DHT22;1977;52.274;10.518;2023-11-22T09:28:22;4.20;99.90
3925;DHT22;1977;52.274;10.518;2023-11-22T09:30:48;4.20;99.90
3925;DHT22;1977;52.274;10.518;2023-11-22T09:33:17;4.30;99.90
3925;DHT22;1977;52.274;10.518;2023-11-22T09:35:46;4.40;99.90
3925;DHT22;1977;52.274;10.518;2023-11-22T09:38:13;4.50;99.90
3925;DHT22;1977;52.274;10.518;2023-11-22T09:40:43;4.50;99.90
3925;DHT22;1977;52.274;10.518;2023-11-22T09:43:11;4.50;99.90
3925;DHT22;1977;52.274;10.518;2023-11-22T09:45:40;4.50;99.90
3925;DHT22;1977;52.274;10.518;2023-11-22T09:48:14;4.60;99.90
3925;DHT22;1977;52.274;10.518;2023-11-22T09:50:50;4.60;99.90
3925;DHT22;1977;52.274;10.518;2023-11-22T09:53:25;4.70;99.90
3925;DHT22;1977;52.274;10.518;2023-11-22T09:55:52;4.80;99.90
3925;DHT22;1977;52.274;10.518;2023-11-22T09:58:20;4.80;99.90
3925;DHT22;1977;52.274;10.518;2023-11-22T10:00:47;4.70;99.90
3925;DHT22;1977;52.274;10.518;2023-11-22T10:03:14;4.80;99.90
3925;DHT22;1977;52.274;10.518;2023-11-22T10:05:43;4.80;99.90
3925;DHT22;1977;52.274;10.518;2023-11-22T10:08:10;4.80;99.90
3925;DHT22;1977;52.274;10.518;2023-11-22T10:10:37;4.80;99.90
3925;DHT22;1977;52.274;10.518;2023-11-22T10:13:05;4.80;99.20
3925;DHT22;1977;52.274;10.518;2023-11-22T10:15:32;4.80;99.00
3925;DHT22;1977;52.274;10.518;2023-11-22T10:17:59;4.80;99.10
3925;DHT22;1977;52.274;10.518;2023-11-22T10:20:36;4.80;99.10
3925;DHT22;1977;52.274;10.518;2023-11-22T10:23:08;4.80;99.40
3925;DHT22;1977;52.274;10.518;2023-11-22T10:25:36;4.80;99.60
3925;DHT22;1977;52.274;10.518;2023-11-22T10:28:03;4.90;99.10
3925;DHT22;1977;52.274;10.518;2023-11-22T10:30:30;4.80;99.30
3925;DHT22;1977;52.274;10.518;2023-11-22T10:32:57;4.70;99.60
3925;DHT22;1977;52.274;10.518;2023-11-22T10:35:24;4.60;99.80
3925;DHT22;1977;52.274;10.518;2023-11-22T10:37:50;4.60;99.90
3925;DHT22;1977;52.274;10.518;2023-11-22T10:40:20;4.60;99.90
3925;DHT22;1977;52.274;10.518;2023-11-22T10:42:48;4.70;99.90
3925;DHT22;1977;52.274;10.518;2023-11-22T10:45:18;4.80;99.90
3925;DHT22;1977;52.274;10.518;2023-11-22T10:47:45;4.80;99.90
3925;DHT22;1977;52.274;10.518;2023-11-22T10:50:12;4.80;99.90
3925;DHT22;1977;52.274;10.518;2023-11-22T10:52:41;4.80;99.90
3925;DHT22;1977;52.274;10.518;2023-11-22T10:55:11;4.90;99.90
3925;DHT22;1977;52.274;10.518;2023-11-22T10:57:45;4.90;99.90
3925;DHT22;1977;52.274;10.518;2023-11-22T11:00:15;5.00;99.90
3925;DHT22;1977;52.274;10.518;2023-11-22T11:02:45;5.10;99.90
3925;DHT22;1977;52.274;10.518;2023-11-22T11:05:16;5.00;99.60
3925;DHT22;1977;52.274;10.518;2023-11-22T11:07:49;5.00;99.90
3925;DHT22;1977;52.274;10.518;2023-11-22T11:10:19;5.30;99.60
3925;DHT22;1977;52.274;10.518;2023-11-22T11:12:48;5.00;99.30
3925;DHT22;1977;52.274;10.518;2023-11-22T11:15:15;5.00;99.70
3925;DHT22;1977;52.274;10.518;2023-11-22T11:17:44;5.00;99.50
3925;DHT22;1977;52.274;10.518;2023-11-22T11:20:15;5.10;99.60
3925;DHT22;1977;52.274;10.518;2023-11-22T11:22:43;5.20;99.20
3925;DHT22;1977;52.274;10.518;2023-11-22T11:25:14;5.10;99.20
3925;DHT22;1977;52.274;10.518;2023-11-22T11:27:41;5.10;99.30
3925;DHT22;1977;52.274;10.518;2023-11-22T11:30:47;5.10;99.20
3925;DHT22;1977;52.274;10.518;2023-11-22T11:33:17;5.20;98.80
3925;DHT22;1977;52.274;10.518;2023-11-22T11:35:46;5.10;98.60
3925;DHT22;1977;52.274;10.518;2023-11-22T11:38:13;5.20;98.70
3925;DHT22;1977;52.274;10.518;2023-11-22T11:40:41;5.10;98.50
3925;DHT22;1977;52.274;10.518;2023-11-22T11:43:10;5.10;98.20
3925;DHT22;1977;52.274;10.518;2023-11-22T11:45:38;5.10;97.70
3925;DHT22;1977;52.274;10.518;2023-11-22T11:48:09;5.10;97.60
3925;DHT22;1977;52.274;10.518;2023-11-22T11:50:35;5.10;98.30
3925;DHT22;1977;52.274;10.518;2023-11-22T11:53:02;5.10;97.80
3925;DHT22;1977;52.274;10.518;2023-11-22T11:55:30;5.20;98.50
3925;DHT22;1977;52.274;10.518;2023-11-22T11:57:57;5.20;98.30
3925;DHT22;1977;52.274;10.518;2023-11-22T12:00:30;5.20;97.80
3925;DHT22;1977;52.274;10.518;2023-11-22T12:02:57;5.20;97.80
3925;DHT22;1977;52.274;10.518;2023-11-22T12:05:25;5.30;97.50
3925;DHT22;1977;52.274;10.518;2023-11-22T12:07:53;5.20;96.50
3925;DHT22;1977;52.274;10.518;2023-11-22T12:10:20;5.10;95.70
3925;DHT22;1977;52.274;10.518;2023-11-22T12:12:49;5.10;94.60
3925;DHT22;1977;52.274;10.518;2023-11-22T12:15:18;4.90;95.10
3925;DHT22;1977;52.274;10.518;2023-11-22T12:17:46;4.90;95.70
3925;DHT22;1977;52.274;10.518;2023-11-22T12:20:15;4.90;96.20
3925;DHT22;1977;52.274;10.518;2023-11-22T12:22:45;5.00;95.40
3925;DHT22;1977;52.274;10.518;2023-11-22T12:25:12;4.90;94.80
3925;DHT22;1977;52.274;10.518;2023-11-22T12:27:41;4.80;94.40
3925;DHT22;1977;52.274;10.518;2023-11-22T12:30:08;4.80;95.40
3925;DHT22;1977;52.274;10.518;2023-11-22T12:32:38;4.80;95.80
3925;DHT22;1977;52.274;10.518;2023-11-22T12:35:06;4.80;96.60
3925;DHT22;1977;52.274;10.518;2023-11-22T12:37:34;4.80;97.40
3925;DHT22;1977;52.274;10.518;2023-11-22T12:40:09;4.90;97.90
3925;DHT22;1977;52.274;10.518;2023-11-22T12:42:47;4.90;97.90
3925;DHT22;1977;52.274;10.518;2023-11-22T12:45:19;4.90;97.80
3925;DHT22;1977;52.274;10.518;2023-11-22T12:47:46;4.80;97.20
3925;DHT22;1977;52.274;10.518;2023-11-22T12:50:29;4.80;96.60
3925;DHT22;1977;52.274;10.518;2023-11-22T12:52:57;4.90;97.10
3925;DHT22;1977;52.274;10.518;2023-11-22T12:55:25;4.90;97.00
3925;DHT22;1977;52.274;10.518;2023-11-22T12:57:57;5.00;97.00
3925;DHT22;1977;52.274;10.518;2023-11-22T13:00:27;5.00;96.60
3925;DHT22;1977;52.274;10.518;2023-11-22T13:02:55;5.20;96.70
3925;DHT22;1977;52.274;10.518;2023-11-22T13:05:22;5.00;96.40
3925;DHT22;1977;52.274;10.518;2023-11-22T13:07:49;5.00;95.70
3925;DHT22;1977;52.274;10.518;2023-11-22T13:10:16;5.00;95.20
3925;DHT22;1977;52.274;10.518;2023-11-22T13:12:44;5.00;95.40
3925;DHT22;1977;52.274;10.518;2023-11-22T13:15:12;5.00;95.60
3925;DHT22;1977;52.274;10.518;2023-11-22T13:17:39;5.00;95.20
3925;DHT22;1977;52.274;10.518;2023-11-22T13:20:07;5.00;95.00
3925;DHT22;1977;52.274;10.518;2023-11-22T13:22:39;5.00;94.80
3925;DHT22;1977;52.274;10.518;2023-11-22T13:25:07;5.00;95.00
3925;DHT22;1977;52.274;10.518;2023-11-22T13:27:35;4.90;95.60
3925;DHT22;1977;52.274;10.518;2023-11-22T13:30:05;4.70;95.70
3925;DHT22;1977;52.274;10.518;2023-11-22T13:32:32;4.60;96.10
3925;DHT22;1977;52.274;10.518;2023-11-22T13:34:59;4.60;96.50
3925;DHT22;1977;52.274;10.518;2023-11-22T13:37:30;4.50;96.80
3925;DHT22;1977;52.274;10.518;2023-11-22T13:39:57;4.40;97.30
3925;DHT22;1977;52.274;10.518;2023-11-22T13:42:24;4.50;97.70
3925;DHT22;1977;52.274;10.518;2023-11-22T13:44:51;4.50;98.10
3925;DHT22;1977;52.274;10.518;2023-11-22T13:47:19;4.50;98.50
3925;DHT22;1977;52.274;10.518;2023-11-22T13:49:46;4.50;98.50
3925;DHT22;1977;52.274;10.518;2023-11-22T13:52:13;4.40;98.80
3925;DHT22;1977;52.274;10.518;2023-11-22T13:54:40;4.40;99.20
3925;DHT22;1977;52.274;10.518;2023-11-22T13:57:06;4.40;99.60
3925;DHT22;1977;52.274;10.518;2023-11-22T13:59:33;4.40;99.90
3925;DHT22;1977;52.274;10.518;2023-11-22T14:02:00;4.50;99.90
3925;DHT22;1977;52.274;10.518;2023-11-22T14:04:28;4.50;99.90
3925;DHT22;1977;52.274;10.518;2023-11-22T14:06:56;4.60;99.90
3925;DHT22;1977;52.274;10.518;2023-11-22T14:09:22;4.60;99.90
3925;DHT22;1977;52.274;10.518;2023-11-22T14:11:49;4.70;99.90
3925;DHT22;1977;52.274;10.518;2023-11-22T14:14:16;4.80;99.90
3925;DHT22;1977;52.274;10.518;2023-11-22T14:16:44;4.80;99.90
3925;DHT22;1977;52.274;10.518;2023-11-22T14:19:14;4.70;99.90
3925;DHT22;1977;52.274;10.518;2023-11-22T14:21:42;4.70;99.90
3925;DHT22;1977;52.274;10.518;2023-11-22T14:24:09;4.80;99.90
3925;DHT22;1977;52.274;10.518;2023-11-22T14:26:36;4.80;99.90
3925;DHT22;1977;52.274;10.518;2023-11-22T14:29:03;4.80;99.90
3925;DHT22;1977;52.274;10.518;2023-11-22T14:31:31;4.80;99.90
3925;DHT22;1977;52.274;10.518;2023-11-22T14:33:58;4.90;99.90
3925;DHT22;1977;52.274;10.518;2023-11-22T14:36:25;4.80;99.90
3925;DHT22;1977;52.274;10.518;2023-11-22T14:38:53;4.80;99.90
3925;DHT22;1977;52.274;10.518;2023-11-22T14:41:22;4.80;99.90
3925;DHT22;1977;52.274;10.518;2023-11-22T14:43:49;4.80;99.90
3925;DHT22;1977;52.274;10.518;2023-11-22T14:46:15;4.80;99.90
3925;DHT22;1977;52.274;10.518;2023-11-22T14:48:43;4.80;99.90
3925;DHT22;1977;52.274;10.518;2023-11-22T14:51:12;4.80;99.90
3925;DHT22;1977;52.274;10.518;2023-11-22T14:53:39;4.80;99.90
3925;DHT22;1977;52.274;10.518;2023-11-22T14:56:11;4.60;99.90
3925;DHT22;1977;52.274;10.518;2023-11-22T14:58:37;4.70;99.90
3925;DHT22;1977;52.274;10.518;2023-11-22T15:01:05;4.70;99.90
3925;DHT22;1977;52.274;10.518;2023-11-22T15:03:34;4.70;99.90
3925;DHT22;1977;52.274;10.518;2023-11-22T15:06:01;4.70;99.90
3925;DHT22;1977;52.274;10.518;2023-11-22T15:08:28;4.70;99.90
3925;DHT22;1977;52.274;10.518;2023-11-22T15:10:55;4.60;99.90
3925;DHT22;1977;52.274;10.518;2023-11-22T15:13:26;4.80;99.90
3925;DHT22;1977;52.274;10.518;2023-11-22T15:15:53;4.60;99.90
3925;DHT22;1977;52.274;10.518;2023-11-22T15:18:22;4.60;99.90
3925;DHT22;1977;52.274;10.518;2023-11-22T15:20:50;4.60;99.90
3925;DHT22;1977;52.274;10.518;2023-11-22T15:23:16;4.70;99.90
3925;DHT22;1977;52.274;10.518;2023-11-22T15:28:12;4.50;99.90
3925;DHT22;1977;52.274;10.518;2023-11-22T15:30:47;4.60;99.90
3925;DHT22;1977;52.274;10.518;2023-11-22T15:33:15;4.60;99.90
3925;DHT22;1977;52.274;10.518;2023-11-22T15:35:42;4.80;99.90
3925;DHT22;1977;52.274;10.518;2023-11-22T15:38:09;4.60;99.90
3925;DHT22;1977;52.274;10.518;2023-11-22T15:40:35;4.60;99.90
3925;DHT22;1977;52.274;10.518;2023-11-22T15:43:04;4.60;99.90
3925;DHT22;1977;52.274;10.518;2023-11-22T15:45:31;4.60;99.90
3925;DHT22;1977;52.274;10.518;2023-11-22T15:47:59;4.70;99.90
3925;DHT22;1977;52.274;10.518;2023-11-22T15:50:25;4.70;99.90
3925;DHT22;1977;52.274;10.518;2023-11-22T15:52:52;4.70;99.90
3925;DHT22;1977;52.274;10.518;2023-11-22T15:55:24;4.70;99.90
3925;DHT22;1977;52.274;10.518;2023-11-22T15:57:51;4.70;99.90
3925;DHT22;1977;52.274;10.518;2023-11-22T16:00:18;4.70;99.90
3925;DHT22;1977;52.274;10.518;2023-11-22T16:02:47;4.70;99.90
3925;DHT22;1977;52.274;10.518;2023-11-22T16:05:15;4.70;99.90
3925;DHT22;1977;52.274;10.518;2023-11-22T16:07:42;4.70;99.90